createdAt,value
2023-05-23T00:04:57.955Z,5.55
2023-05-23T00:09:54.927Z,6.05
2023-05-23T00:14:53.014Z,6.80
2023-05-23T00:19:49.961Z,6.95
2023-05-23T00:24:47.644Z,10.63
2023-05-23T00:29:44.726Z,10.95
2023-05-23T00:34:41.925Z,10.23
2023-05-23T00:39:38.790Z,8.80
2023-05-23T00:44:36.675Z,7.90
2023-05-23T00:49:34.074Z,8.35
2023-05-23T00:54:34.441Z,8.43
2023-05-23T00:59:32.182Z,7.10
2023-05-23T01:04:29.888Z,6.82
2023-05-23T01:09:28.944Z,7.57
2023-05-23T01:14:32.805Z,7.43
2023-05-23T01:19:49.330Z,7.32
2023-05-23T01:24:55.485Z,6.57
2023-05-23T01:29:57.681Z,7.40
2023-05-23T01:34:55.667Z,7.10
2023-05-23T01:39:52.554Z,7.05
2023-05-23T01:44:49.761Z,6.93
2023-05-23T01:49:48.839Z,7.90
2023-05-23T01:54:48.508Z,7.25
2023-05-23T01:59:46.261Z,7.22
2023-05-23T02:04:43.305Z,7.45
2023-05-23T02:09:41.092Z,8.05
2023-05-23T02:14:39.118Z,8.65
2023-05-23T02:19:37.081Z,8.30
2023-05-23T02:24:34.223Z,6.18
2023-05-23T02:29:31.849Z,6.55
2023-05-23T02:34:29.139Z,8.48
2023-05-23T02:39:27.321Z,7.35
2023-05-23T02:44:25.448Z,6.70
2023-05-23T02:49:23.300Z,7.57
2023-05-23T02:54:21.378Z,6.95
2023-05-23T02:59:18.415Z,7.13
2023-05-23T03:04:15.512Z,7.32
2023-05-23T03:09:15.214Z,6.15
2023-05-23T03:14:12.296Z,6.32
2023-05-23T03:19:09.514Z,6.78
2023-05-23T03:24:06.778Z,6.72
2023-05-23T03:29:04.369Z,6.30
2023-05-23T03:34:01.440Z,6.13
2023-05-23T03:38:58.356Z,6.80
2023-05-23T03:43:55.349Z,7.15
2023-05-23T03:48:53.251Z,6.50
2023-05-23T03:53:50.479Z,6.32
2023-05-23T03:58:47.976Z,7.28
2023-05-23T04:03:47.500Z,7.45
2023-05-23T04:08:46.659Z,7.95
2023-05-23T04:13:43.833Z,6.75
2023-05-23T04:18:42.878Z,7.70
2023-05-23T04:23:40.018Z,8.02
2023-05-23T04:28:39.626Z,8.57
2023-05-23T04:33:37.556Z,8.05
2023-05-23T04:38:40.462Z,7.90
2023-05-23T04:43:42.157Z,8.48
2023-05-23T04:48:50.654Z,8.88
2023-05-23T04:53:50.060Z,6.57
2023-05-23T04:58:48.753Z,7.75
2023-05-23T05:03:46.978Z,8.75
2023-05-23T05:08:44.834Z,7.70
2023-05-23T05:13:53.661Z,7.65
2023-05-23T05:18:55.440Z,7.95
2023-05-23T05:23:54.048Z,7.97
2023-05-23T05:29:01.653Z,7.90
2023-05-23T05:34:03.778Z,7.18
2023-05-23T05:39:11.258Z,8.63
2023-05-23T05:44:10.381Z,7.22
2023-05-23T05:49:08.196Z,7.63
2023-05-23T05:54:07.065Z,6.88
2023-05-23T05:59:07.807Z,6.28
2023-05-23T06:04:08.727Z,7.22
2023-05-23T06:09:06.435Z,7.32
2023-05-23T06:14:27.872Z,6.90
2023-05-23T06:19:32.883Z,6.53
2023-05-23T06:24:30.812Z,5.80
2023-05-23T06:29:37.590Z,7.30
2023-05-23T06:34:39.583Z,6.70
2023-05-23T06:39:44.125Z,5.68
2023-05-23T06:44:45.529Z,5.90
2023-05-23T06:49:43.823Z,6.30
2023-05-23T06:54:41.867Z,5.78
2023-05-23T06:59:39.477Z,5.00
2023-05-23T07:04:37.109Z,6.07
2023-05-23T07:09:43.570Z,4.95
2023-05-23T07:14:49.293Z,6.10
2023-05-23T07:19:52.047Z,4.15
2023-05-23T07:24:51.926Z,5.72
2023-05-23T07:29:53.249Z,6.20
2023-05-23T07:34:50.871Z,5.63
2023-05-23T07:39:48.806Z,7.13
2023-05-23T07:44:49.732Z,5.90
2023-05-23T07:49:47.198Z,7.53
2023-05-23T07:54:45.036Z,5.72
2023-05-23T07:59:45.466Z,5.60
2023-05-23T08:04:44.766Z,7.00
2023-05-23T08:09:43.089Z,6.20
2023-05-23T08:14:52.122Z,5.30
2023-05-23T08:20:02.846Z,6.18
2023-05-23T08:25:17.110Z,5.30
2023-05-23T08:30:15.715Z,5.38
2023-05-23T08:35:13.968Z,5.25
2023-05-23T08:40:18.559Z,4.50
2023-05-23T08:45:39.521Z,5.05
2023-05-23T08:50:45.328Z,4.90
2023-05-23T08:55:51.707Z,4.15
2023-05-23T09:00:55.816Z,4.50
2023-05-23T09:06:05.472Z,4.85
2023-05-23T09:11:03.716Z,4.40
2023-05-23T09:16:05.708Z,4.30
2023-05-23T09:21:14.918Z,5.43
2023-05-23T09:26:38.887Z,4.50
2023-05-23T09:31:36.033Z,4.82
2023-05-23T09:36:36.343Z,3.83
2023-05-23T09:41:34.359Z,4.03
2023-05-23T09:46:36.291Z,5.53
2023-05-23T09:51:35.900Z,3.92
2023-05-23T09:56:38.213Z,4.40
2023-05-23T10:02:04.041Z,3.60
2023-05-23T10:07:16.827Z,4.05
2023-05-23T10:12:47.223Z,3.83
2023-05-23T10:18:01.157Z,3.97
2023-05-23T10:23:01.545Z,3.50
2023-05-23T10:28:09.802Z,3.58
2023-05-23T10:33:16.323Z,4.85
2023-05-23T10:38:28.897Z,4.53
2023-05-23T10:43:35.197Z,4.82
2023-05-23T10:48:34.810Z,3.40
2023-05-23T10:53:35.588Z,3.78
2023-05-23T10:58:36.863Z,4.25
2023-05-23T11:03:40.637Z,4.10
2023-05-23T11:08:49.244Z,3.88
2023-05-23T11:14:02.158Z,3.30
2023-05-23T11:19:29.698Z,3.70
2023-05-23T11:24:49.876Z,3.47
2023-05-23T11:29:58.408Z,3.10
2023-05-23T11:34:55.421Z,5.68
2023-05-23T11:39:54.666Z,3.83
2023-05-23T11:44:52.541Z,3.40
2023-05-23T11:49:50.163Z,3.47
2023-05-23T11:54:47.240Z,3.33
2023-05-23T11:59:45.603Z,3.70
2023-05-23T12:04:42.559Z,3.05
2023-05-23T12:09:43.304Z,3.95
2023-05-23T12:14:45.505Z,3.35
2023-05-23T12:19:52.920Z,3.33
2023-05-23T12:24:53.605Z,3.97
2023-05-23T12:29:53.953Z,3.50
2023-05-23T12:34:52.521Z,3.47
2023-05-23T12:39:57.692Z,3.10
2023-05-23T12:44:55.940Z,3.30
2023-05-23T12:49:52.952Z,3.33
2023-05-23T12:55:00.146Z,3.30
2023-05-23T13:00:02.223Z,3.38
2023-05-23T13:05:05.941Z,3.40
2023-05-23T13:10:03.644Z,3.50
2023-05-23T13:15:02.446Z,3.35
2023-05-23T13:20:00.741Z,3.38
2023-05-23T13:24:59.704Z,3.17
2023-05-23T13:30:00.398Z,3.30
2023-05-23T13:35:03.564Z,2.90
2023-05-23T13:40:03.091Z,3.22
2023-05-23T13:45:07.862Z,4.00
2023-05-23T13:50:29.074Z,3.58
2023-05-23T13:55:27.298Z,3.67
2023-05-23T14:00:44.500Z,2.90
2023-05-23T14:06:22.026Z,3.33
2023-05-23T14:11:22.200Z,3.90
2023-05-23T14:16:19.840Z,4.32
2023-05-23T14:21:19.921Z,3.38
2023-05-23T14:26:25.568Z,3.00
2023-05-23T14:32:16.895Z,3.75
2023-05-23T14:37:20.224Z,3.58
2023-05-23T14:42:36.432Z,3.28
2023-05-23T14:47:34.231Z,4.25
2023-05-23T14:52:36.483Z,3.10
2023-05-23T14:57:33.930Z,3.22
2023-05-23T15:02:31.744Z,3.47
2023-05-23T15:07:45.736Z,3.10
2023-05-23T15:12:45.576Z,3.10
2023-05-23T15:17:44.817Z,3.40
2023-05-23T15:22:41.978Z,3.08
2023-05-23T15:27:41.147Z,3.50
2023-05-23T15:32:40.354Z,3.08
2023-05-23T15:38:12.139Z,2.75
2023-05-23T15:43:27.354Z,3.65
2023-05-23T15:48:26.474Z,3.88
2023-05-23T15:53:26.065Z,3.13
2023-05-23T15:58:57.011Z,4.05
2023-05-23T16:03:56.040Z,4.55
2023-05-23T16:08:54.089Z,3.38
2023-05-23T16:13:53.467Z,3.33
2023-05-23T16:18:50.964Z,3.60
2023-05-23T16:23:49.354Z,3.30
2023-05-23T16:28:54.240Z,3.45
2023-05-23T16:33:51.834Z,4.38
2023-05-23T16:38:50.446Z,4.47
2023-05-23T16:43:47.803Z,3.95
2023-05-23T16:48:45.316Z,4.03
2023-05-23T16:53:42.168Z,3.75
2023-05-23T16:58:39.658Z,3.38
2023-05-23T17:03:37.402Z,3.92
2023-05-23T17:08:37.784Z,3.33
2023-05-23T17:13:35.899Z,3.65
2023-05-23T17:18:34.672Z,3.10
2023-05-23T17:23:32.016Z,2.92
2023-05-23T17:28:28.953Z,3.08
2023-05-23T17:33:25.976Z,3.63
2023-05-23T17:38:23.972Z,3.35
2023-05-23T17:43:22.098Z,3.50
2023-05-23T17:48:23.892Z,3.40
2023-05-23T17:53:27.000Z,3.72
2023-05-23T17:58:25.362Z,3.22
2023-05-23T18:03:23.736Z,3.97
2023-05-23T18:08:20.865Z,3.90
2023-05-23T18:13:19.590Z,3.40
2023-05-23T18:18:17.382Z,3.40
2023-05-23T18:23:14.694Z,3.35
2023-05-23T18:28:11.653Z,3.47
2023-05-23T18:33:09.517Z,3.35
2023-05-23T18:38:06.859Z,3.30
2023-05-23T18:43:04.175Z,3.67
2023-05-23T18:48:01.030Z,3.38
2023-05-23T18:52:58.676Z,4.15
2023-05-23T18:57:55.505Z,3.97
2023-05-23T19:02:52.670Z,3.92
2023-05-23T19:07:49.845Z,4.00
2023-05-23T19:12:47.413Z,3.40
2023-05-23T19:17:44.238Z,4.20
2023-05-23T19:22:50.806Z,3.78
2023-05-23T19:27:49.142Z,4.00
2023-05-23T19:32:46.213Z,3.15
2023-05-23T19:37:43.279Z,3.67
2023-05-23T19:42:40.074Z,3.92
2023-05-23T19:47:37.560Z,6.90
2023-05-23T19:52:34.508Z,3.67
2023-05-23T19:57:31.621Z,3.50
2023-05-23T20:02:28.613Z,3.83
2023-05-23T20:07:26.272Z,4.10
2023-05-23T20:12:23.183Z,3.70
2023-05-23T20:17:19.998Z,5.35
2023-05-23T20:22:16.895Z,4.30
2023-05-23T20:27:14.561Z,3.90
2023-05-23T20:32:11.413Z,4.72
2023-05-23T20:37:08.611Z,4.10
2023-05-23T20:42:05.739Z,5.70
2023-05-23T20:47:03.829Z,5.07
2023-05-23T20:52:00.729Z,5.03
2023-05-23T20:56:58.306Z,5.75
2023-05-23T21:01:55.071Z,5.30
2023-05-23T21:06:52.561Z,5.22
2023-05-23T21:11:49.367Z,4.53
2023-05-23T21:16:46.414Z,4.35
2023-05-23T21:21:44.163Z,4.68
2023-05-23T21:26:41.631Z,4.93
2023-05-23T21:31:41.824Z,5.20
2023-05-23T21:36:39.033Z,5.40
2023-05-23T21:41:36.414Z,5.85
2023-05-23T21:46:34.104Z,5.55
2023-05-23T21:51:30.866Z,4.93
2023-05-23T21:56:28.066Z,4.53
2023-05-23T22:01:24.809Z,5.38
2023-05-23T22:06:22.252Z,4.55
2023-05-23T22:11:19.276Z,5.13
2023-05-23T22:16:16.134Z,4.88
2023-05-23T22:21:12.995Z,5.88
2023-05-23T22:26:15.100Z,5.20
2023-05-23T22:31:18.984Z,5.00
2023-05-23T22:36:16.045Z,5.03
2023-05-23T22:41:14.150Z,5.28
2023-05-23T22:46:11.023Z,5.00
2023-05-23T22:51:09.064Z,5.13
2023-05-23T22:56:05.974Z,5.35
2023-05-23T23:01:03.500Z,5.22
2023-05-23T23:06:00.324Z,7.35
2023-05-23T23:10:57.173Z,5.63
2023-05-23T23:15:54.203Z,6.15
2023-05-23T23:20:51.644Z,6.10
2023-05-23T23:25:49.552Z,6.20
2023-05-23T23:30:46.505Z,5.95
2023-05-23T23:35:45.776Z,5.28
2023-05-23T23:40:44.854Z,6.25
2023-05-23T23:45:41.762Z,5.18
2023-05-23T23:50:38.530Z,6.22
2023-05-23T23:55:35.361Z,5.70
